sensor_id;sensor_type;location;lat;lon;timestamp;P1;durP1;ratioP1;P2;durP2;ratioP2
42104;SDS011;61464;51.472;5.712;2022-10-16T00:01:20;12.93;;;4.70;;
42104;SDS011;61464;51.472;5.712;2022-10-16T00:03:49;7.07;;;4.25;;
42104;SDS011;61464;51.472;5.712;2022-10-16T00:06:17;10.00;;;4.32;;
42104;SDS011;61464;51.472;5.712;2022-10-16T00:08:45;10.43;;;3.90;;
42104;SDS011;61464;51.472;5.712;2022-10-16T00:11:16;5.57;;;3.85;;
42104;SDS011;61464;51.472;5.712;2022-10-16T00:13:45;8.98;;;4.28;;
42104;SDS011;61464;51.472;5.712;2022-10-16T00:16:13;9.90;;;4.53;;
42104;SDS011;61464;51.472;5.712;2022-10-16T00:18:39;8.45;;;4.15;;
42104;SDS011;61464;51.472;5.712;2022-10-16T00:21:10;10.43;;;4.28;;
42104;SDS011;61464;51.472;5.712;2022-10-16T00:23:40;12.05;;;3.80;;
42104;SDS011;61464;51.472;5.712;2022-10-16T00:26:07;8.25;;;3.78;;
42104;SDS011;61464;51.472;5.712;2022-10-16T00:28:37;7.43;;;3.63;;
42104;SDS011;61464;51.472;5.712;2022-10-16T00:31:04;5.50;;;3.60;;
42104;SDS011;61464;51.472;5.712;2022-10-16T00:33:36;5.57;;;3.95;;
42104;SDS011;61464;51.472;5.712;2022-10-16T00:36:03;8.85;;;3.80;;
42104;SDS011;61464;51.472;5.712;2022-10-16T00:38:30;5.60;;;3.67;;
42104;SDS011;61464;51.472;5.712;2022-10-16T00:40:57;12.43;;;4.13;;
42104;SDS011;61464;51.472;5.712;2022-10-16T00:46:13;8.68;;;3.72;;
42104;SDS011;61464;51.472;5.712;2022-10-16T00:51:55;6.95;;;3.72;;
42104;SDS011;61464;51.472;5.712;2022-10-16T00:54:22;6.68;;;3.50;;
42104;SDS011;61464;51.472;5.712;2022-10-16T00:56:56;8.15;;;3.90;;
42104;SDS011;61464;51.472;5.712;2022-10-16T00:59:27;5.32;;;3.58;;
42104;SDS011;61464;51.472;5.712;2022-10-16T01:02:02;7.65;;;3.80;;
42104;SDS011;61464;51.472;5.712;2022-10-16T01:04:37;7.78;;;3.50;;
42104;SDS011;61464;51.472;5.712;2022-10-16T01:07:25;6.88;;;3.95;;
42104;SDS011;61464;51.472;5.712;2022-10-16T01:18:43;7.57;;;3.72;;
42104;SDS011;61464;51.472;5.712;2022-10-16T01:21:28;6.88;;;4.18;;
42104;SDS011;61464;51.472;5.712;2022-10-16T01:32:46;7.47;;;4.60;;
42104;SDS011;61464;51.472;5.712;2022-10-16T01:35:50;6.68;;;4.15;;
42104;SDS011;61464;51.472;5.712;2022-10-16T01:38:33;6.65;;;4.30;;
42104;SDS011;61464;51.472;5.712;2022-10-16T01:41:25;7.95;;;4.35;;
42104;SDS011;61464;51.472;5.712;2022-10-16T01:44:06;12.02;;;4.43;;
42104;SDS011;61464;51.472;5.712;2022-10-16T01:46:41;9.05;;;4.70;;
42104;SDS011;61464;51.472;5.712;2022-10-16T01:49:10;8.13;;;4.60;;
42104;SDS011;61464;51.472;5.712;2022-10-16T01:51:38;5.75;;;4.13;;
42104;SDS011;61464;51.472;5.712;2022-10-16T01:54:06;7.72;;;4.30;;
42104;SDS011;61464;51.472;5.712;2022-10-16T01:56:34;6.32;;;3.65;;
42104;SDS011;61464;51.472;5.712;2022-10-16T01:59:03;7.35;;;3.58;;
42104;SDS011;61464;51.472;5.712;2022-10-16T02:01:44;5.65;;;3.50;;
42104;SDS011;61464;51.472;5.712;2022-10-16T02:04:36;9.52;;;3.67;;
42104;SDS011;61464;51.472;5.712;2022-10-16T02:07:10;4.88;;;3.42;;
42104;SDS011;61464;51.472;5.712;2022-10-16T02:09:37;4.82;;;3.00;;
42104;SDS011;61464;51.472;5.712;2022-10-16T02:12:06;5.32;;;2.90;;
42104;SDS011;61464;51.472;5.712;2022-10-16T02:17:16;3.90;;;3.10;;
42104;SDS011;61464;51.472;5.712;2022-10-16T02:19:42;6.05;;;3.08;;
42104;SDS011;61464;51.472;5.712;2022-10-16T02:22:15;5.90;;;2.85;;
42104;SDS011;61464;51.472;5.712;2022-10-16T02:24:52;8.25;;;2.75;;
42104;SDS011;61464;51.472;5.712;2022-10-16T02:28:23;9.05;;;2.95;;
42104;SDS011;61464;51.472;5.712;2022-10-16T02:30:55;4.85;;;2.90;;
42104;SDS011;61464;51.472;5.712;2022-10-16T02:33:26;7.50;;;2.95;;
42104;SDS011;61464;51.472;5.712;2022-10-16T02:35:54;5.97;;;3.20;;
42104;SDS011;61464;51.472;5.712;2022-10-16T02:38:21;7.18;;;3.33;;
42104;SDS011;61464;51.472;5.712;2022-10-16T02:40:48;7.78;;;3.78;;
42104;SDS011;61464;51.472;5.712;2022-10-16T02:43:14;7.65;;;3.53;;
42104;SDS011;61464;51.472;5.712;2022-10-16T02:45:40;6.22;;;3.70;;
42104;SDS011;61464;51.472;5.712;2022-10-16T02:48:06;8.35;;;4.47;;
42104;SDS011;61464;51.472;5.712;2022-10-16T02:50:32;7.80;;;3.92;;
42104;SDS011;61464;51.472;5.712;2022-10-16T02:52:58;11.00;;;4.13;;
42104;SDS011;61464;51.472;5.712;2022-10-16T02:55:25;9.93;;;3.92;;
42104;SDS011;61464;51.472;5.712;2022-10-16T02:57:52;9.98;;;3.47;;
42104;SDS011;61464;51.472;5.712;2022-10-16T03:00:19;8.00;;;3.85;;
42104;SDS011;61464;51.472;5.712;2022-10-16T03:02:45;7.65;;;3.90;;
42104;SDS011;61464;51.472;5.712;2022-10-16T03:05:12;7.15;;;3.67;;
42104;SDS011;61464;51.472;5.712;2022-10-16T03:07:38;10.23;;;3.63;;
42104;SDS011;61464;51.472;5.712;2022-10-16T03:10:04;11.07;;;3.97;;
42104;SDS011;61464;51.472;5.712;2022-10-16T03:12:31;5.50;;;3.30;;
42104;SDS011;61464;51.472;5.712;2022-10-16T03:14:57;11.10;;;4.10;;
42104;SDS011;61464;51.472;5.712;2022-10-16T03:17:23;5.28;;;3.60;;
42104;SDS011;61464;51.472;5.712;2022-10-16T03:19:49;7.03;;;3.70;;
42104;SDS011;61464;51.472;5.712;2022-10-16T03:22:15;4.30;;;3.40;;
42104;SDS011;61464;51.472;5.712;2022-10-16T03:24:41;3.90;;;2.97;;
42104;SDS011;61464;51.472;5.712;2022-10-16T03:27:07;3.65;;;2.60;;
42104;SDS011;61464;51.472;5.712;2022-10-16T03:29:33;4.82;;;2.78;;
42104;SDS011;61464;51.472;5.712;2022-10-16T03:31:59;6.03;;;2.67;;
42104;SDS011;61464;51.472;5.712;2022-10-16T03:34:26;3.95;;;2.60;;
42104;SDS011;61464;51.472;5.712;2022-10-16T03:36:52;6.60;;;2.60;;
42104;SDS011;61464;51.472;5.712;2022-10-16T03:39:18;4.65;;;2.60;;
42104;SDS011;61464;51.472;5.712;2022-10-16T03:41:44;4.25;;;2.83;;
42104;SDS011;61464;51.472;5.712;2022-10-16T03:44:11;6.47;;;2.25;;
42104;SDS011;61464;51.472;5.712;2022-10-16T03:46:37;5.57;;;2.42;;
42104;SDS011;61464;51.472;5.712;2022-10-16T03:49:03;4.13;;;2.50;;
42104;SDS011;61464;51.472;5.712;2022-10-16T03:51:29;3.72;;;2.40;;
42104;SDS011;61464;51.472;5.712;2022-10-16T03:53:55;6.75;;;2.50;;
42104;SDS011;61464;51.472;5.712;2022-10-16T03:56:21;6.85;;;2.42;;
42104;SDS011;61464;51.472;5.712;2022-10-16T03:58:47;4.30;;;2.70;;
42104;SDS011;61464;51.472;5.712;2022-10-16T04:01:12;5.03;;;2.40;;
42104;SDS011;61464;51.472;5.712;2022-10-16T04:03:40;3.45;;;2.40;;
42104;SDS011;61464;51.472;5.712;2022-10-16T04:06:06;4.00;;;2.63;;
42104;SDS011;61464;51.472;5.712;2022-10-16T04:08:31;3.17;;;2.55;;
42104;SDS011;61464;51.472;5.712;2022-10-16T04:11:00;3.60;;;2.20;;
42104;SDS011;61464;51.472;5.712;2022-10-16T04:13:26;5.90;;;2.83;;
42104;SDS011;61464;51.472;5.712;2022-10-16T04:15:52;2.85;;;2.20;;
42104;SDS011;61464;51.472;5.712;2022-10-16T04:18:18;4.13;;;2.47;;
42104;SDS011;61464;51.472;5.712;2022-10-16T04:20:43;3.22;;;2.40;;
42104;SDS011;61464;51.472;5.712;2022-10-16T04:23:09;5.38;;;2.95;;
42104;SDS011;61464;51.472;5.712;2022-10-16T04:25:35;5.07;;;2.58;;
42104;SDS011;61464;51.472;5.712;2022-10-16T04:28:01;4.63;;;2.22;;
42104;SDS011;61464;51.472;5.712;2022-10-16T04:30:27;7.32;;;2.13;;
42104;SDS011;61464;51.472;5.712;2022-10-16T04:32:53;3.97;;;2.30;;
42104;SDS011;61464;51.472;5.712;2022-10-16T04:35:19;5.13;;;2.22;;
42104;SDS011;61464;51.472;5.712;2022-10-16T04:37:46;4.60;;;2.25;;
42104;SDS011;61464;51.472;5.712;2022-10-16T04:40:12;4.47;;;2.58;;
42104;SDS011;61464;51.472;5.712;2022-10-16T04:42:39;6.32;;;2.30;;
42104;SDS011;61464;51.472;5.712;2022-10-16T04:45:05;5.63;;;2.60;;
42104;SDS011;61464;51.472;5.712;2022-10-16T04:47:33;6.43;;;2.63;;
42104;SDS011;61464;51.472;5.712;2022-10-16T04:49:58;3.67;;;2.22;;
42104;SDS011;61464;51.472;5.712;2022-10-16T04:52:26;4.53;;;2.60;;
42104;SDS011;61464;51.472;5.712;2022-10-16T04:54:52;4.03;;;2.45;;
42104;SDS011;61464;51.472;5.712;2022-10-16T04:57:18;4.85;;;2.40;;
42104;SDS011;61464;51.472;5.712;2022-10-16T04:59:44;8.70;;;3.42;;
42104;SDS011;61464;51.472;5.712;2022-10-16T05:02:10;5.07;;;2.83;;
42104;SDS011;61464;51.472;5.712;2022-10-16T05:04:36;5.38;;;2.38;;
42104;SDS011;61464;51.472;5.712;2022-10-16T05:07:02;4.00;;;2.53;;
42104;SDS011;61464;51.472;5.712;2022-10-16T05:09:27;6.72;;;2.60;;
42104;SDS011;61464;51.472;5.712;2022-10-16T05:11:53;8.00;;;2.50;;
42104;SDS011;61464;51.472;5.712;2022-10-16T05:14:19;3.28;;;2.38;;
42104;SDS011;61464;51.472;5.712;2022-10-16T05:16:45;6.25;;;2.85;;
42104;SDS011;61464;51.472;5.712;2022-10-16T05:19:12;4.60;;;2.75;;
42104;SDS011;61464;51.472;5.712;2022-10-16T05:21:38;4.40;;;2.70;;
42104;SDS011;61464;51.472;5.712;2022-10-16T05:24:04;6.40;;;2.53;;
42104;SDS011;61464;51.472;5.712;2022-10-16T05:26:30;6.03;;;2.80;;
42104;SDS011;61464;51.472;5.712;2022-10-16T05:28:56;4.28;;;2.40;;
42104;SDS011;61464;51.472;5.712;2022-10-16T05:31:21;4.80;;;2.60;;
42104;SDS011;61464;51.472;5.712;2022-10-16T05:33:47;7.72;;;2.97;;
42104;SDS011;61464;51.472;5.712;2022-10-16T05:36:13;4.10;;;2.78;;
42104;SDS011;61464;51.472;5.712;2022-10-16T05:38:39;4.95;;;2.92;;
42104;SDS011;61464;51.472;5.712;2022-10-16T05:41:05;6.65;;;3.35;;
42104;SDS011;61464;51.472;5.712;2022-10-16T05:43:31;6.65;;;2.78;;
42104;SDS011;61464;51.472;5.712;2022-10-16T05:45:59;7.57;;;2.88;;
42104;SDS011;61464;51.472;5.712;2022-10-16T05:48:30;6.65;;;2.78;;
42104;SDS011;61464;51.472;5.712;2022-10-16T05:51:01;5.40;;;2.85;;
42104;SDS011;61464;51.472;5.712;2022-10-16T05:53:32;6.93;;;3.08;;
42104;SDS011;61464;51.472;5.712;2022-10-16T05:56:00;6.13;;;3.53;;
42104;SDS011;61464;51.472;5.712;2022-10-16T05:58:31;4.88;;;3.15;;
42104;SDS011;61464;51.472;5.712;2022-10-16T06:01:04;6.78;;;3.35;;
42104;SDS011;61464;51.472;5.712;2022-10-16T06:03:41;5.68;;;2.95;;
42104;SDS011;61464;51.472;5.712;2022-10-16T06:06:11;9.05;;;3.65;;
42104;SDS011;61464;51.472;5.712;2022-10-16T06:08:43;4.57;;;3.58;;
42104;SDS011;61464;51.472;5.712;2022-10-16T06:11:14;4.75;;;3.72;;
42104;SDS011;61464;51.472;5.712;2022-10-16T06:13:43;4.45;;;3.05;;
42104;SDS011;61464;51.472;5.712;2022-10-16T06:16:10;4.95;;;3.40;;
42104;SDS011;61464;51.472;5.712;2022-10-16T06:18:38;7.28;;;3.20;;
42104;SDS011;61464;51.472;5.712;2022-10-16T06:21:11;7.65;;;3.30;;
42104;SDS011;61464;51.472;5.712;2022-10-16T06:23:41;5.78;;;3.08;;
42104;SDS011;61464;51.472;5.712;2022-10-16T06:26:08;6.90;;;3.45;;
42104;SDS011;61464;51.472;5.712;2022-10-16T06:28:39;4.75;;;2.97;;
42104;SDS011;61464;51.472;5.712;2022-10-16T06:31:05;6.07;;;3.00;;
42104;SDS011;61464;51.472;5.712;2022-10-16T06:33:33;9.60;;;3.50;;
42104;SDS011;61464;51.472;5.712;2022-10-16T06:36:04;6.35;;;3.55;;
42104;SDS011;61464;51.472;5.712;2022-10-16T06:38:33;5.40;;;3.38;;
42104;SDS011;61464;51.472;5.712;2022-10-16T06:41:00;5.55;;;3.40;;
42104;SDS011;61464;51.472;5.712;2022-10-16T06:43:31;6.53;;;3.22;;
42104;SDS011;61464;51.472;5.712;2022-10-16T06:45:58;6.32;;;3.33;;
42104;SDS011;61464;51.472;5.712;2022-10-16T06:48:25;7.28;;;3.45;;
42104;SDS011;61464;51.472;5.712;2022-10-16T06:51:08;9.07;;;4.60;;
42104;SDS011;61464;51.472;5.712;2022-10-16T06:53:40;7.93;;;4.03;;
42104;SDS011;61464;51.472;5.712;2022-10-16T06:56:22;10.30;;;6.82;;
42104;SDS011;61464;51.472;5.712;2022-10-16T06:58:53;19.42;;;12.88;;
42104;SDS011;61464;51.472;5.712;2022-10-16T07:01:20;8.88;;;6.82;;
42104;SDS011;61464;51.472;5.712;2022-10-16T07:03:48;12.45;;;7.38;;
42104;SDS011;61464;51.472;5.712;2022-10-16T07:06:16;8.85;;;6.45;;
42104;SDS011;61464;51.472;5.712;2022-10-16T07:08:45;7.25;;;4.10;;
42104;SDS011;61464;51.472;5.712;2022-10-16T07:11:13;5.25;;;3.03;;
42104;SDS011;61464;51.472;5.712;2022-10-16T07:13:42;8.55;;;2.65;;
42104;SDS011;61464;51.472;5.712;2022-10-16T07:16:20;10.25;;;2.80;;
42104;SDS011;61464;51.472;5.712;2022-10-16T07:18:50;7.40;;;2.58;;
42104;SDS011;61464;51.472;5.712;2022-10-16T07:21:18;3.40;;;2.33;;
42104;SDS011;61464;51.472;5.712;2022-10-16T07:23:51;4.40;;;2.63;;
42104;SDS011;61464;51.472;5.712;2022-10-16T07:26:18;6.40;;;2.47;;
42104;SDS011;61464;51.472;5.712;2022-10-16T07:28:44;5.85;;;2.35;;
42104;SDS011;61464;51.472;5.712;2022-10-16T07:31:11;5.32;;;2.95;;
42104;SDS011;61464;51.472;5.712;2022-10-16T07:33:39;5.95;;;2.88;;
42104;SDS011;61464;51.472;5.712;2022-10-16T07:36:08;5.32;;;2.50;;
42104;SDS011;61464;51.472;5.712;2022-10-16T07:38:34;4.15;;;2.70;;
42104;SDS011;61464;51.472;5.712;2022-10-16T07:41:01;4.65;;;2.63;;
42104;SDS011;61464;51.472;5.712;2022-10-16T07:43:30;4.68;;;2.50;;
42104;SDS011;61464;51.472;5.712;2022-10-16T07:45:56;8.48;;;2.63;;
42104;SDS011;61464;51.472;5.712;2022-10-16T07:48:23;5.85;;;2.47;;
42104;SDS011;61464;51.472;5.712;2022-10-16T07:50:58;3.47;;;2.35;;
42104;SDS011;61464;51.472;5.712;2022-10-16T07:53:26;6.07;;;2.33;;
42104;SDS011;61464;51.472;5.712;2022-10-16T07:55:56;5.68;;;2.25;;
42104;SDS011;61464;51.472;5.712;2022-10-16T07:58:24;5.60;;;2.03;;
42104;SDS011;61464;51.472;5.712;2022-10-16T08:00:50;5.60;;;2.10;;
42104;SDS011;61464;51.472;5.712;2022-10-16T08:03:16;5.43;;;2.25;;
42104;SDS011;61464;51.472;5.712;2022-10-16T08:05:41;7.97;;;2.25;;
42104;SDS011;61464;51.472;5.712;2022-10-16T08:08:11;7.32;;;2.38;;
42104;SDS011;61464;51.472;5.712;2022-10-16T08:10:39;5.03;;;2.20;;
42104;SDS011;61464;51.472;5.712;2022-10-16T08:13:05;6.50;;;2.13;;
42104;SDS011;61464;51.472;5.712;2022-10-16T08:15:31;8.32;;;2.60;;
42104;SDS011;61464;51.472;5.712;2022-10-16T08:18:01;4.05;;;2.30;;
42104;SDS011;61464;51.472;5.712;2022-10-16T08:20:29;10.93;;;2.72;;
42104;SDS011;61464;51.472;5.712;2022-10-16T08:22:57;3.50;;;2.08;;
42104;SDS011;61464;51.472;5.712;2022-10-16T08:25:23;5.20;;;2.42;;
42104;SDS011;61464;51.472;5.712;2022-10-16T08:27:50;4.38;;;2.03;;
42104;SDS011;61464;51.472;5.712;2022-10-16T08:30:17;2.80;;;1.77;;
42104;SDS011;61464;51.472;5.712;2022-10-16T08:32:44;5.85;;;2.15;;
42104;SDS011;61464;51.472;5.712;2022-10-16T08:35:11;5.63;;;2.17;;
42104;SDS011;61464;51.472;5.712;2022-10-16T08:37:37;5.97;;;2.30;;
42104;SDS011;61464;51.472;5.712;2022-10-16T08:40:05;4.82;;;1.85;;
42104;SDS011;61464;51.472;5.712;2022-10-16T08:48:13;4.80;;;1.75;;
42104;SDS011;61464;51.472;5.712;2022-10-16T08:50:51;3.92;;;1.55;;
42104;SDS011;61464;51.472;5.712;2022-10-16T08:53:20;5.03;;;1.90;;
42104;SDS011;61464;51.472;5.712;2022-10-16T08:55:55;5.30;;;1.70;;
42104;SDS011;61464;51.472;5.712;2022-10-16T08:58:22;5.70;;;1.80;;
42104;SDS011;61464;51.472;5.712;2022-10-16T09:00:56;6.20;;;1.58;;
42104;SDS011;61464;51.472;5.712;2022-10-16T09:06:46;4.93;;;1.63;;
42104;SDS011;61464;51.472;5.712;2022-10-16T09:09:38;7.22;;;1.73;;
42104;SDS011;61464;51.472;5.712;2022-10-16T09:12:19;5.40;;;1.83;;
42104;SDS011;61464;51.472;5.712;2022-10-16T09:23:46;5.65;;;1.40;;
42104;SDS011;61464;51.472;5.712;2022-10-16T09:26:14;8.50;;;1.63;;
42104;SDS011;61464;51.472;5.712;2022-10-16T09:28:41;5.32;;;1.55;;
42104;SDS011;61464;51.472;5.712;2022-10-16T09:31:13;5.80;;;1.33;;
42104;SDS011;61464;51.472;5.712;2022-10-16T09:33:55;3.10;;;1.38;;
42104;SDS011;61464;51.472;5.712;2022-10-16T09:36:26;7.70;;;1.85;;
42104;SDS011;61464;51.472;5.712;2022-10-16T09:39:07;8.07;;;1.63;;
42104;SDS011;61464;51.472;5.712;2022-10-16T09:41:37;4.30;;;1.40;;
42104;SDS011;61464;51.472;5.712;2022-10-16T09:46:44;5.95;;;1.60;;
42104;SDS011;61464;51.472;5.712;2022-10-16T09:49:23;5.38;;;1.67;;
42104;SDS011;61464;51.472;5.712;2022-10-16T09:51:51;6.95;;;1.35;;
42104;SDS011;61464;51.472;5.712;2022-10-16T09:54:37;3.67;;;1.60;;
42104;SDS011;61464;51.472;5.712;2022-10-16T09:57:18;9.05;;;1.83;;
42104;SDS011;61464;51.472;5.712;2022-10-16T09:59:48;3.70;;;1.25;;
42104;SDS011;61464;51.472;5.712;2022-10-16T10:02:20;9.45;;;1.40;;
42104;SDS011;61464;51.472;5.712;2022-10-16T10:04:59;3.78;;;1.30;;
42104;SDS011;61464;51.472;5.712;2022-10-16T10:07:25;7.35;;;1.52;;
42104;SDS011;61464;51.472;5.712;2022-10-16T10:12:27;6.93;;;1.20;;
42104;SDS011;61464;51.472;5.712;2022-10-16T10:14:56;8.75;;;1.30;;
42104;SDS011;61464;51.472;5.712;2022-10-16T10:17:32;7.50;;;1.40;;
42104;SDS011;61464;51.472;5.712;2022-10-16T10:19:59;8.50;;;1.50;;
42104;SDS011;61464;51.472;5.712;2022-10-16T10:22:59;4.60;;;1.17;;
42104;SDS011;61464;51.472;5.712;2022-10-16T10:25:55;9.35;;;1.58;;
42104;SDS011;61464;51.472;5.712;2022-10-16T10:45:52;10.82;;;1.35;;
42104;SDS011;61464;51.472;5.712;2022-10-16T10:48:33;6.93;;;1.50;;
42104;SDS011;61464;51.472;5.712;2022-10-16T10:51:36;6.18;;;1.52;;
42104;SDS011;61464;51.472;5.712;2022-10-16T11:06:08;12.30;;;1.75;;
42104;SDS011;61464;51.472;5.712;2022-10-16T11:08:46;7.07;;;1.50;;
42104;SDS011;61464;51.472;5.712;2022-10-16T11:14:26;10.50;;;1.80;;
42104;SDS011;61464;51.472;5.712;2022-10-16T11:16:58;9.55;;;1.42;;
42104;SDS011;61464;51.472;5.712;2022-10-16T11:22:14;5.18;;;1.45;;
42104;SDS011;61464;51.472;5.712;2022-10-16T11:25:06;9.68;;;1.40;;
42104;SDS011;61464;51.472;5.712;2022-10-16T11:30:53;7.85;;;1.50;;
42104;SDS011;61464;51.472;5.712;2022-10-16T11:34:08;8.57;;;1.77;;
42104;SDS011;61464;51.472;5.712;2022-10-16T11:36:51;7.13;;;1.52;;
42104;SDS011;61464;51.472;5.712;2022-10-16T11:39:35;8.55;;;1.48;;
42104;SDS011;61464;51.472;5.712;2022-10-16T11:42:18;12.35;;;1.38;;
42104;SDS011;61464;51.472;5.712;2022-10-16T11:47:36;6.57;;;1.55;;
42104;SDS011;61464;51.472;5.712;2022-10-16T11:50:36;7.18;;;1.20;;
42104;SDS011;61464;51.472;5.712;2022-10-16T11:56:16;7.68;;;1.27;;
42104;SDS011;61464;51.472;5.712;2022-10-16T11:58:56;7.45;;;1.40;;
42104;SDS011;61464;51.472;5.712;2022-10-16T12:07:11;4.95;;;1.25;;
42104;SDS011;61464;51.472;5.712;2022-10-16T12:09:52;8.95;;;1.48;;
42104;SDS011;61464;51.472;5.712;2022-10-16T12:12:37;8.95;;;1.30;;
42104;SDS011;61464;51.472;5.712;2022-10-16T12:17:46;6.30;;;1.40;;
42104;SDS011;61464;51.472;5.712;2022-10-16T12:22:47;3.80;;;1.13;;
42104;SDS011;61464;51.472;5.712;2022-10-16T12:30:40;6.40;;;1.27;;
42104;SDS011;61464;51.472;5.712;2022-10-16T12:33:21;5.40;;;1.27;;
42104;SDS011;61464;51.472;5.712;2022-10-16T12:35:52;3.83;;;1.25;;
42104;SDS011;61464;51.472;5.712;2022-10-16T12:41:23;4.35;;;1.30;;
42104;SDS011;61464;51.472;5.712;2022-10-16T12:43:57;5.25;;;1.27;;
42104;SDS011;61464;51.472;5.712;2022-10-16T12:49:20;8.00;;;1.10;;
42104;SDS011;61464;51.472;5.712;2022-10-16T12:51:54;5.97;;;1.10;;
42104;SDS011;61464;51.472;5.712;2022-10-16T12:54:31;4.68;;;1.20;;
42104;SDS011;61464;51.472;5.712;2022-10-16T13:11:26;10.55;;;1.30;;
42104;SDS011;61464;51.472;5.712;2022-10-16T13:14:37;8.30;;;1.27;;
42104;SDS011;61464;51.472;5.712;2022-10-16T13:17:20;7.88;;;1.20;;
42104;SDS011;61464;51.472;5.712;2022-10-16T13:25:46;6.43;;;1.08;;
42104;SDS011;61464;51.472;5.712;2022-10-16T13:28:59;6.70;;;1.13;;
42104;SDS011;61464;51.472;5.712;2022-10-16T13:31:27;7.25;;;1.08;;
42104;SDS011;61464;51.472;5.712;2022-10-16T13:33:54;5.15;;;1.02;;
42104;SDS011;61464;51.472;5.712;2022-10-16T13:36:29;5.15;;;1.00;;
42104;SDS011;61464;51.472;5.712;2022-10-16T13:39:22;6.35;;;1.10;;
42104;SDS011;61464;51.472;5.712;2022-10-16T13:42:03;4.68;;;1.35;;
42104;SDS011;61464;51.472;5.712;2022-10-16T13:44:34;4.63;;;1.25;;
42104;SDS011;61464;51.472;5.712;2022-10-16T13:47:15;5.63;;;1.55;;
42104;SDS011;61464;51.472;5.712;2022-10-16T13:49:59;3.33;;;0.98;;
42104;SDS011;61464;51.472;5.712;2022-10-16T13:52:30;5.65;;;1.10;;
42104;SDS011;61464;51.472;5.712;2022-10-16T13:54:57;7.03;;;1.20;;
42104;SDS011;61464;51.472;5.712;2022-10-16T13:57:23;7.68;;;1.00;;
42104;SDS011;61464;51.472;5.712;2022-10-16T13:59:50;4.88;;;1.20;;
42104;SDS011;61464;51.472;5.712;2022-10-16T14:02:35;5.70;;;1.38;;
42104;SDS011;61464;51.472;5.712;2022-10-16T14:05:07;3.72;;;1.20;;
42104;SDS011;61464;51.472;5.712;2022-10-16T14:07:35;7.00;;;1.10;;
42104;SDS011;61464;51.472;5.712;2022-10-16T14:13:14;3.65;;;1.10;;
42104;SDS011;61464;51.472;5.712;2022-10-16T14:15:49;8.35;;;1.20;;
42104;SDS011;61464;51.472;5.712;2022-10-16T14:18:18;3.58;;;1.10;;
42104;SDS011;61464;51.472;5.712;2022-10-16T14:20:48;4.50;;;1.13;;
42104;SDS011;61464;51.472;5.712;2022-10-16T14:23:20;3.38;;;1.25;;
42104;SDS011;61464;51.472;5.712;2022-10-16T14:25:48;6.68;;;1.65;;
42104;SDS011;61464;51.472;5.712;2022-10-16T14:33:58;5.35;;;1.30;;
42104;SDS011;61464;51.472;5.712;2022-10-16T14:36:24;4.20;;;1.30;;
42104;SDS011;61464;51.472;5.712;2022-10-16T14:38:57;6.88;;;1.33;;
42104;SDS011;61464;51.472;5.712;2022-10-16T14:41:43;5.35;;;1.35;;
42104;SDS011;61464;51.472;5.712;2022-10-16T14:44:13;6.68;;;1.20;;
42104;SDS011;61464;51.472;5.712;2022-10-16T14:46:42;3.88;;;1.20;;
42104;SDS011;61464;51.472;5.712;2022-10-16T14:51:35;4.22;;;1.13;;
42104;SDS011;61464;51.472;5.712;2022-10-16T14:54:03;4.20;;;1.25;;
42104;SDS011;61464;51.472;5.712;2022-10-16T14:59:22;6.80;;;1.17;;
42104;SDS011;61464;51.472;5.712;2022-10-16T15:02:50;6.07;;;1.52;;
42104;SDS011;61464;51.472;5.712;2022-10-16T15:05:22;7.53;;;1.40;;
42104;SDS011;61464;51.472;5.712;2022-10-16T15:07:51;3.83;;;1.10;;
42104;SDS011;61464;51.472;5.712;2022-10-16T15:10:19;4.43;;;1.15;;
42104;SDS011;61464;51.472;5.712;2022-10-16T15:12:51;5.72;;;1.27;;
42104;SDS011;61464;51.472;5.712;2022-10-16T15:17:55;3.25;;;1.00;;
42104;SDS011;61464;51.472;5.712;2022-10-16T15:20:25;2.58;;;0.90;;
42104;SDS011;61464;51.472;5.712;2022-10-16T15:22:53;7.60;;;1.15;;
42104;SDS011;61464;51.472;5.712;2022-10-16T15:28:18;2.42;;;1.00;;
42104;SDS011;61464;51.472;5.712;2022-10-16T15:30:46;6.22;;;1.52;;
42104;SDS011;61464;51.472;5.712;2022-10-16T15:33:18;2.50;;;1.00;;
42104;SDS011;61464;51.472;5.712;2022-10-16T15:35:48;4.78;;;1.08;;
42104;SDS011;61464;51.472;5.712;2022-10-16T15:38:16;3.30;;;1.00;;
42104;SDS011;61464;51.472;5.712;2022-10-16T15:40:44;3.47;;;1.10;;
42104;SDS011;61464;51.472;5.712;2022-10-16T15:43:12;5.10;;;1.20;;
42104;SDS011;61464;51.472;5.712;2022-10-16T15:45:37;5.03;;;1.10;;
42104;SDS011;61464;51.472;5.712;2022-10-16T15:48:04;7.38;;;1.40;;
42104;SDS011;61464;51.472;5.712;2022-10-16T15:50:30;7.50;;;1.10;;
42104;SDS011;61464;51.472;5.712;2022-10-16T15:52:57;6.72;;;1.33;;
42104;SDS011;61464;51.472;5.712;2022-10-16T15:55:23;3.92;;;1.08;;
42104;SDS011;61464;51.472;5.712;2022-10-16T15:57:49;2.83;;;1.20;;
42104;SDS011;61464;51.472;5.712;2022-10-16T16:00:16;4.13;;;1.02;;
42104;SDS011;61464;51.472;5.712;2022-10-16T16:02:51;2.05;;;1.15;;
42104;SDS011;61464;51.472;5.712;2022-10-16T16:05:19;3.83;;;1.40;;
42104;SDS011;61464;51.472;5.712;2022-10-16T16:07:46;8.93;;;1.30;;
42104;SDS011;61464;51.472;5.712;2022-10-16T16:10:15;7.47;;;1.40;;
42104;SDS011;61464;51.472;5.712;2022-10-16T16:12:42;4.65;;;1.70;;
42104;SDS011;61464;51.472;5.712;2022-10-16T16:15:14;4.63;;;1.63;;
42104;SDS011;61464;51.472;5.712;2022-10-16T16:17:39;3.95;;;1.25;;
42104;SDS011;61464;51.472;5.712;2022-10-16T16:20:05;4.18;;;1.20;;
42104;SDS011;61464;51.472;5.712;2022-10-16T16:22:32;3.63;;;1.20;;
42104;SDS011;61464;51.472;5.712;2022-10-16T16:24:58;4.70;;;1.50;;
42104;SDS011;61464;51.472;5.712;2022-10-16T16:27:24;3.25;;;1.27;;
42104;SDS011;61464;51.472;5.712;2022-10-16T16:29:50;6.75;;;1.80;;
42104;SDS011;61464;51.472;5.712;2022-10-16T16:32:16;6.88;;;1.90;;
42104;SDS011;61464;51.472;5.712;2022-10-16T16:34:41;3.55;;;1.25;;
42104;SDS011;61464;51.472;5.712;2022-10-16T16:37:07;5.03;;;1.60;;
42104;SDS011;61464;51.472;5.712;2022-10-16T16:39:33;4.47;;;1.63;;
42104;SDS011;61464;51.472;5.712;2022-10-16T16:41:59;3.42;;;1.77;;
42104;SDS011;61464;51.472;5.712;2022-10-16T16:44:25;4.82;;;2.55;;
42104;SDS011;61464;51.472;5.712;2022-10-16T16:46:51;6.53;;;3.33;;
42104;SDS011;61464;51.472;5.712;2022-10-16T16:49:17;7.13;;;3.38;;
42104;SDS011;61464;51.472;5.712;2022-10-16T16:51:43;9.50;;;6.65;;
42104;SDS011;61464;51.472;5.712;2022-10-16T16:54:09;10.35;;;4.75;;
42104;SDS011;61464;51.472;5.712;2022-10-16T16:56:37;4.80;;;1.98;;
42104;SDS011;61464;51.472;5.712;2022-10-16T16:59:03;6.50;;;1.67;;
42104;SDS011;61464;51.472;5.712;2022-10-16T17:01:30;6.00;;;1.83;;
42104;SDS011;61464;51.472;5.712;2022-10-16T17:03:56;5.40;;;1.60;;
42104;SDS011;61464;51.472;5.712;2022-10-16T17:06:25;2.05;;;1.48;;
42104;SDS011;61464;51.472;5.712;2022-10-16T17:08:56;4.88;;;1.55;;
42104;SDS011;61464;51.472;5.712;2022-10-16T17:11:24;5.47;;;1.70;;
42104;SDS011;61464;51.472;5.712;2022-10-16T17:13:51;5.45;;;1.63;;
42104;SDS011;61464;51.472;5.712;2022-10-16T17:16:20;3.70;;;1.60;;
42104;SDS011;61464;51.472;5.712;2022-10-16T17:18:48;5.05;;;1.65;;
42104;SDS011;61464;51.472;5.712;2022-10-16T17:21:14;8.30;;;1.90;;
42104;SDS011;61464;51.472;5.712;2022-10-16T17:23:40;4.85;;;2.13;;
42104;SDS011;61464;51.472;5.712;2022-10-16T17:26:07;4.30;;;1.70;;
42104;SDS011;61464;51.472;5.712;2022-10-16T17:28:40;6.28;;;2.50;;
42104;SDS011;61464;51.472;5.712;2022-10-16T17:31:07;5.65;;;2.15;;
42104;SDS011;61464;51.472;5.712;2022-10-16T17:33:46;6.30;;;2.25;;
42104;SDS011;61464;51.472;5.712;2022-10-16T17:36:12;7.05;;;2.10;;
42104;SDS011;61464;51.472;5.712;2022-10-16T17:38:42;5.85;;;2.38;;
42104;SDS011;61464;51.472;5.712;2022-10-16T17:41:16;4.70;;;2.40;;
42104;SDS011;61464;51.472;5.712;2022-10-16T17:43:47;6.32;;;2.65;;
42104;SDS011;61464;51.472;5.712;2022-10-16T17:46:15;5.05;;;2.60;;